Latest Coastal Weather Observations for Lombadina

IDW60701

Issued at 3:22 am WST Friday 12 February 2016 (issued every 10 minutes, with the page automatically refreshed every 10 minutes)

About coastal observations | Map of coastal stations | Coastal observations for WA | Marine services | Other Formats
Station Details ID: 503016 Name: LOMBADINA AIRSTRIP Lat: -16.52 Lon: 122.92 Height: 42.0 m
Data from the previous 72 hours. | See also: Recent months for locations in Western Australia
Date/Time
WST
Temp

°C
Wind Pressure Rain
since 9am
mm
Weather Cloud Vis
km
Sea
Height
m
Swell
Dir
 
Speed
knots
Gust
knots
hPa Trend Height
m
Period
s
Dir
12/03:00am 28.5 WSW 4 8 1006.7 - 0.0 - Partly cloudy 10 - - - -
12/02:30am 28.6 W 5 8 1006.6 - 0.0 - Partly cloudy 10 - - - -
12/02:00am 28.8 WSW 6 11 1006.6 - 0.0 - Partly cloudy 10 - - - -
12/01:30am 28.8 W 6 11 1006.6 - 0.0 - Partly cloudy 10 - - - -
12/01:00am 28.9 W 7 11 1006.5 - 0.0 - Partly cloudy 10 - - - -
12/12:30am 28.9 W 6 11 1007.0 - 0.0 - Partly cloudy 10 - - - -
12/12:00am 28.9 W 6 11 1007.1 - 0.0 - Mostly clear 10 - - - -
 
Date/Time
WST
Temp

°C
Wind Pressure Rain
since 9am
mm
Weather Cloud Vis
km
Sea
Height
m
Swell
Dir
 
Speed
knots
Gust
knots
hPa Trend Height
m
Period
s
Dir
11/11:30pm 28.9 W 7 12 1007.3 - 0.0 - Partly cloudy 10 - - - -
11/11:03pm 29.0 W 7 12 1007.6 - 0.0 - Partly cloudy 10 - - - -
11/11:00pm 29.0 W 7 12 1007.5 - 0.0 - Partly cloudy 10 - - - -
11/10:30pm 29.0 W 6 10 1008.0 - 0.0 - Partly cloudy 10 - - - -
11/10:28pm 29.0 WNW 6 10 1008.0 - 0.0 - Partly cloudy 10 - - - -
11/10:00pm 28.9 W 5 9 1007.9 - 0.0 - - 10 - - - -
11/09:48pm 29.0 W 5 11 1007.8 - 0.0 - Partly cloudy 10 - - - -
11/09:32pm 29.1 W 5 10 1007.8 - 0.0 - Partly cloudy 10 - - - -
11/09:30pm 29.0 W 5 9 1007.8 - 0.0 - Partly cloudy 10 - - - -
11/09:00pm 29.1 W 5 10 1007.3 - 0.0 - - 10 - - - -
11/08:30pm 29.2 W 5 9 1007.0 - 0.0 - - 10 - - - -
11/08:00pm 29.4 WNW 4 7 1006.7 - 0.0 - - 10 - - - -
11/07:30pm 29.6 WNW 5 9 1006.3 - 0.0 - - 10 - - - -
11/07:00pm 29.8 W 5 10 1006.0 - 0.0 - - 10 - - - -
11/06:30pm 30.1 W 6 11 1005.6 - 0.0 - - 10 - - - -
11/06:00pm 30.7 W 6 10 1005.4 - 0.0 - - 10 - - - -
11/05:30pm 31.3 W 6 11 1005.1 - 0.0 - - 10 - - - -
11/05:00pm 31.6 W 7 13 1004.7 - 0.0 - - 10 - - - -
11/04:30pm 32.5 WNW 7 14 1004.3 - 0.0 - - 10 - - - -
11/04:00pm 33.2 W 8 14 1004.2 - 0.0 - - 10 - - - -
11/03:30pm 33.9 W 8 15 1004.2 - 0.0 - - 10 - - - -
11/03:00pm 34.5 W 7 12 1004.7 - 0.0 - - 10 - - - -
11/02:30pm 34.3 W 7 14 1004.9 - 0.0 - - 10 - - - -
11/02:00pm 33.7 W 9 14 1005.0 - 0.0 - - 10 - - - -
11/01:30pm 33.3 W 9 16 1005.3 - 0.0 - - 10 - - - -
11/01:00pm 33.6 W 9 18 1005.8 - 0.0 - - 10 - - - -
11/12:30pm 33.2 W 9 16 1006.0 - 0.0 - - 10 - - - -
11/12:00pm 33.0 W 10 16 1006.4 - 0.0 - - 10 - - - -
11/11:30am 32.3 W 9 17 1006.7 - 0.0 - - 10 - - - -
11/11:00am 31.8 W 10 16 1007.0 - 0.0 - - 10 - - - -
11/10:30am 32.8 W 10 16 1007.2 - 0.0 - - 10 - - - -
11/10:00am 32.0 W 9 15 1007.6 - 0.0 - - 10 - - - -
11/09:30am 32.2 W 8 15 1007.9 - 0.0 - - 10 - - - -
11/09:00am 31.3 WNW 8 14 1008.1 - 0.0 - - 10 - - - -
11/08:30am 31.3 WNW 10 16 1008.1 - 0.0 - - 10 - - - -
11/08:00am 31.0 WNW 8 13 1008.2 - 0.0 - - 10 - - - -
11/07:30am 30.2 NW 8 12 1008.3 - 0.0 - Partly cloudy 10 - - - -
11/07:00am 29.8 NW 6 12 1008.2 - 0.0 - Partly cloudy 10 - - - -
11/06:30am 29.3 N 3 6 1008.7 - 0.0 - Partly cloudy 10 - - - -
11/06:00am 28.5 NNE 3 4 1008.4 - 0.0 - - 10 - - - -
11/05:30am 28.7 NE 3 8 1008.2 - 0.0 - Partly cloudy 10 - - - -
11/05:00am 28.5 CALM 0 3 1007.7 - 0.0 - - 10 - - - -
11/04:30am 28.6 ESE 2 4 1007.4 - 0.0 - Partly cloudy 10 - - - -
11/04:00am 28.6 WSW 5 9 1006.5 - 0.0 - - 10 - - - -
11/03:30am 28.5 W 4 8 1006.4 - 0.0 - - 10 - - - -
11/03:00am 28.7 W 4 8 1006.5 - 0.0 - - 10 - - - -
11/02:30am 28.8 W 6 12 1006.4 - 0.0 - - 10 - - - -
11/02:00am 28.8 W 6 11 1006.1 - 0.0 - - 10 - - - -
11/01:30am 28.8 W 6 10 1005.8 - 0.0 - - 10 - - - -
11/01:00am 28.7 W 5 9 1006.2 - 0.0 - - 10 - - - -
11/12:30am 28.9 WNW 6 11 1006.5 - 0.0 - - 10 - - - -
11/12:00am 29.1 W 6 11 1006.9 - 0.0 - - 10 - - - -
 
Date/Time
WST
Temp

°C
Wind Pressure Rain
since 9am
mm
Weather Cloud Vis
km
Sea
Height
m
Swell
Dir
 
Speed
knots
Gust
knots
hPa Trend Height
m
Period
s
Dir
10/11:30pm 29.1 W 5 10 1007.2 - 0.0 - - 10 - - - -
10/11:00pm 29.2 W 5 9 1007.4 - 0.0 - - 10 - - - -
10/10:30pm 29.4 W 6 11 1007.6 - 0.0 - - 10 - - - -
10/10:00pm 29.6 W 6 11 1007.5 - 0.0 - - 10 - - - -
10/09:30pm 29.7 W 5 10 1007.4 - 0.0 - - 10 - - - -
10/09:00pm 29.8 W 5 10 1007.4 - 0.0 - - 10 - - - -
10/08:30pm 30.1 W 6 12 1007.4 - 0.0 - - 10 - - - -
10/08:00pm 30.2 W 6 11 1007.2 - 0.0 - - 10 - - - -
10/07:30pm 30.1 W 6 10 1006.7 - 0.0 - - 10 - - - -
10/07:00pm 30.1 W 7 12 1006.3 - 0.0 - - 10 - - - -
10/06:30pm 30.3 W 6 13 1006.0 - 0.0 - - 10 - - - -
10/06:00pm 30.8 W 7 14 1005.6 - 0.0 - - 10 - - - -
10/05:30pm 31.3 W 8 15 1005.5 - 0.0 - - 10 - - - -
10/05:00pm 31.2 W 9 14 1005.3 - 0.0 - - 10 - - - -
10/04:30pm 32.7 W 9 14 1005.2 - 0.0 - - 10 - - - -
10/04:00pm 33.5 WNW 9 15 1005.2 - 0.0 - - 10 - - - -
10/03:30pm 33.0 W 9 14 1005.5 - 0.0 - - 10 - - - -
10/03:00pm 33.6 W 8 14 1005.5 - 0.0 - - 10 - - - -
10/02:30pm 33.2 WNW 10 17 1005.6 - 0.0 - - 10 - - - -
10/02:00pm 33.8 W 8 13 1005.9 - 0.0 - - 10 - - - -
10/01:30pm 33.2 WNW 9 16 1006.1 - 0.0 - - 10 - - - -
10/01:00pm 33.5 W 9 16 1006.4 - 0.0 - - 10 - - - -
10/12:30pm 34.1 W 9 18 1006.8 - 0.0 - - 10 - - - -
10/12:00pm 34.4 W 7 12 1006.9 - 0.0 - - 10 - - - -
10/11:30am 34.0 WNW 7 12 1007.3 - 0.0 - - 10 - - - -
10/11:00am 33.5 WNW 9 14 1007.5 - 0.0 - - 10 - - - -
10/10:30am 33.1 NW 7 11 1007.9 - 0.0 - - 10 - - - -
10/10:00am 33.2 NW 6 10 1008.3 - 0.0 - - 10 - - - -
10/09:30am 32.8 NW 5 8 1008.4 - 0.0 - - 10 - - - -
10/09:00am 32.1 NW 5 9 1008.4 - 0.0 - - 10 - - - -
10/08:30am 31.7 WNW 5 7 1008.6 - 0.0 - - 10 - - - -
10/08:00am 31.6 W 4 8 1008.4 - 0.0 - - 10 - - - -
10/07:30am 30.5 WSW 3 6 1008.7 - 0.0 - - 10 - - - -
10/07:00am 29.7 S 1 3 1008.8 - 0.0 - Partly cloudy 10 - - - -
10/06:30am 28.8 ESE 1 2 1008.6 - 0.0 - - 10 - - - -
10/06:00am 27.5 ESE 1 2 1008.4 - 0.0 - - 10 - - - -
10/05:30am 27.5 SSW 1 3 1008.3 - 0.0 - Partly cloudy 10 - - - -
10/05:00am 27.8 CALM 0 2 1008.1 - 0.0 - Partly cloudy 10 - - - -
10/04:30am 28.1 CALM 0 2 1007.8 - 0.0 - Partly cloudy 10 - - - -
10/04:00am 28.5 ESE 2 8 1007.6 - 0.0 - Partly cloudy 10 - - - -
10/03:30am 28.7 W 4 9 1006.6 - 0.0 - Partly cloudy 10 - - - -
10/03:00am 28.8 WNW 5 10 1006.4 - 0.0 - Mostly clear 10 - - - -
10/02:30am 28.8 W 6 11 1006.5 - 0.0 - Partly cloudy 10 - - - -
10/02:00am 28.8 WNW 5 11 1006.2 - 0.0 - - 10 - - - -
10/01:30am 28.7 W 5 9 1006.5 - 0.0 - Partly cloudy 10 - - - -
10/01:00am 29.0 W 5 9 1007.0 - 0.0 - Partly cloudy 10 - - - -
10/12:30am 29.0 WNW 5 9 1007.4 - 0.0 - - 10 - - - -
10/12:00am 29.0 W 6 11 1007.8 - 0.0 - - 10 - - - -
 
Date/Time
WST
Temp

°C
Wind Pressure Rain
since 9am
mm
Weather Cloud Vis
km
Sea
Height
m
Swell
Dir
 
Speed
knots
Gust
knots
hPa Trend Height
m
Period
s
Dir
09/11:30pm 29.0 W 5 9 1007.9 - 0.0 - Partly cloudy 10 - - - -
09/11:00pm 29.1 W 6 10 1008.0 - 0.0 - Partly cloudy 10 - - - -
09/10:30pm 29.2 W 5 9 1008.1 - 0.0 - Partly cloudy 10 - - - -
09/10:00pm 29.3 W 5 9 1008.4 - 0.0 - - 10 - - - -
09/09:30pm 29.4 W 5 9 1008.3 - 0.0 - Partly cloudy 10 - - - -
09/09:00pm 29.5 W 6 11 1008.2 - 0.0 - Mostly clear 10 - - - -
09/08:30pm 29.7 WNW 6 11 1008.1 - 0.0 - Partly cloudy 10 - - - -
09/08:00pm 29.7 WNW 5 9 1007.8 - 0.0 - - 10 - - - -
09/07:30pm 29.7 W 6 10 1007.5 - 0.0 - - 10 - - - -
09/07:00pm 30.0 WNW 6 11 1007.2 - 0.0 - - 10 - - - -
09/06:30pm 30.2 NW 7 11 1006.8 - 0.0 - - 10 - - - -
09/06:00pm 31.3 NW 7 12 1006.7 - 0.0 - - 10 - - - -
09/05:30pm 32.4 NNW 4 7 1006.7 - 0.0 - - 10 - - - -
09/05:00pm 31.7 NNW 5 10 1006.7 - 0.0 - - 10 - - - -
09/04:30pm 32.6 WNW 8 12 1006.2 - 0.0 - - 10 - - - -
09/04:00pm 33.0 W 9 17 1006.3 - 0.0 - - 10 - - - -
09/03:30pm 32.9 WNW 9 14 1006.4 - 0.0 - - 10 - - - -
09/03:00pm 32.4 WNW 8 16 1006.3 - 0.0 - - 10 - - - -
09/02:30pm 32.3 NW 10 16 1006.3 - 0.0 - - 10 - - - -
09/02:00pm 32.9 WNW 8 16 1006.7 - 0.0 - - 10 - - - -
09/01:30pm 34.1 WNW 8 14 1007.0 - 0.0 - - 10 - - - -
09/01:00pm 33.2 WNW 10 16 1007.1 - 0.0 - - 10 - - - -
09/12:30pm 34.1 NW 10 15 1007.3 - 0.0 - - 10 - - - -
09/12:00pm 33.8 NW 9 16 1007.7 - 0.0 - - 10 - - - -
09/11:30am 34.5 WNW 8 14 1007.9 - 0.0 - - 10 - - - -
09/11:00am 34.5 NW 8 13 1008.3 - 0.0 - - 10 - - - -
09/10:30am 33.3 NW 8 12 1008.8 - 0.0 - - 10 - - - -
09/10:00am 33.7 WSW 5 9 1008.9 - 0.0 - - 10 - - - -
09/09:30am 33.3 W 4 7 1009.3 - 0.0 - - 10 - - - -
09/09:00am 33.2 W 5 8 1009.5 - 0.0 - - 10 - - - -
09/08:30am 31.7 WNW 6 8 1009.4 - 0.0 - - 10 - - - -
09/08:00am 31.1 WNW 4 8 1009.3 - 0.0 - - 10 - - - -
09/07:30am 30.8 WNW 4 7 1009.2 - 0.0 - - 10 - - - -
09/07:00am 29.7 WNW 3 6 1009.2 - 0.0 - - 10 - - - -
09/06:30am 28.7 WNW 1 3 1009.3 - 0.0 - - 10 - - - -
09/06:00am 27.0 WSW 1 2 1008.9 - 0.0 - - 10 - - - -
09/05:30am 27.1 WSW 1 2 1008.8 - 0.0 - Partly cloudy 10 - - - -
09/05:00am 27.3 SSE 1 2 1008.8 - 0.0 - - 10 - - - -
09/04:30am 28.1 SSE 1 3 1008.7 - 0.0 - - 10 - - - -
09/04:00am 28.4 SE 3 7 1008.7 - 0.0 - Partly cloudy 10 - - - -
09/03:30am 28.4 W 2 4 1007.4 - 0.0 - - 10 - - - -

Other Formats:

Comma delimited format used in spreadsheet applications
http://www.bom.gov.au/fwo/IDW60701/IDW60701.99206.axf

JavaScript Object Notation format (JSON) in row-major order
http://www.bom.gov.au/fwo/IDW60701/IDW60701.99206.json